sensor_id;sensor_type;location;lat;lon;timestamp;P1;durP1;ratioP1;P2;durP2;ratioP2
81960;SDS011;71462;50.650;6.888;2024-01-15T00:02:22;16.67;;;7.68;;
81960;SDS011;71462;50.650;6.888;2024-01-15T00:04:52;20.67;;;8.38;;
81960;SDS011;71462;50.650;6.888;2024-01-15T00:07:23;21.33;;;9.32;;
81960;SDS011;71462;50.650;6.888;2024-01-15T00:09:51;21.77;;;9.07;;
81960;SDS011;71462;50.650;6.888;2024-01-15T00:12:19;20.30;;;8.82;;
81960;SDS011;71462;50.650;6.888;2024-01-15T00:14:53;19.85;;;8.25;;
81960;SDS011;71462;50.650;6.888;2024-01-15T00:17:21;16.77;;;8.02;;
81960;SDS011;71462;50.650;6.888;2024-01-15T00:19:49;18.17;;;7.97;;
81960;SDS011;71462;50.650;6.888;2024-01-15T00:22:18;22.42;;;8.88;;
81960;SDS011;71462;50.650;6.888;2024-01-15T00:24:46;18.73;;;8.82;;
81960;SDS011;71462;50.650;6.888;2024-01-15T00:27:13;17.08;;;7.00;;
81960;SDS011;71462;50.650;6.888;2024-01-15T00:29:41;19.58;;;9.75;;
81960;SDS011;71462;50.650;6.888;2024-01-15T00:32:09;23.50;;;11.02;;
81960;SDS011;71462;50.650;6.888;2024-01-15T00:34:36;19.15;;;8.27;;
81960;SDS011;71462;50.650;6.888;2024-01-15T00:37:04;18.60;;;9.05;;
81960;SDS011;71462;50.650;6.888;2024-01-15T00:39:34;17.33;;;7.72;;
81960;SDS011;71462;50.650;6.888;2024-01-15T00:42:02;18.52;;;9.20;;
81960;SDS011;71462;50.650;6.888;2024-01-15T00:44:30;19.63;;;8.77;;
81960;SDS011;71462;50.650;6.888;2024-01-15T00:46:57;23.45;;;11.75;;
81960;SDS011;71462;50.650;6.888;2024-01-15T00:49:26;20.48;;;10.43;;
81960;SDS011;71462;50.650;6.888;2024-01-15T00:51:54;19.20;;;8.02;;
81960;SDS011;71462;50.650;6.888;2024-01-15T00:54:22;23.08;;;10.27;;
81960;SDS011;71462;50.650;6.888;2024-01-15T00:56:51;19.02;;;10.20;;
81960;SDS011;71462;50.650;6.888;2024-01-15T00:59:19;20.75;;;8.55;;
81960;SDS011;71462;50.650;6.888;2024-01-15T01:01:46;20.92;;;9.35;;
81960;SDS011;71462;50.650;6.888;2024-01-15T01:04:14;19.17;;;8.48;;
81960;SDS011;71462;50.650;6.888;2024-01-15T01:06:42;20.38;;;8.93;;
81960;SDS011;71462;50.650;6.888;2024-01-15T01:09:10;21.40;;;8.70;;
81960;SDS011;71462;50.650;6.888;2024-01-15T01:11:38;20.75;;;8.43;;
81960;SDS011;71462;50.650;6.888;2024-01-15T01:14:07;18.45;;;9.50;;
81960;SDS011;71462;50.650;6.888;2024-01-15T01:16:35;18.58;;;8.38;;
81960;SDS011;71462;50.650;6.888;2024-01-15T01:19:05;17.65;;;8.43;;
81960;SDS011;71462;50.650;6.888;2024-01-15T01:21:34;17.77;;;8.70;;
81960;SDS011;71462;50.650;6.888;2024-01-15T01:24:02;21.33;;;8.75;;
81960;SDS011;71462;50.650;6.888;2024-01-15T01:26:30;23.83;;;11.02;;
81960;SDS011;71462;50.650;6.888;2024-01-15T01:28:58;19.48;;;8.63;;
81960;SDS011;71462;50.650;6.888;2024-01-15T01:31:27;22.02;;;10.75;;
81960;SDS011;71462;50.650;6.888;2024-01-15T01:33:54;20.65;;;7.90;;
81960;SDS011;71462;50.650;6.888;2024-01-15T01:36:22;18.88;;;8.70;;
81960;SDS011;71462;50.650;6.888;2024-01-15T01:38:50;18.10;;;8.93;;
81960;SDS011;71462;50.650;6.888;2024-01-15T01:41:17;21.20;;;8.10;;
81960;SDS011;71462;50.650;6.888;2024-01-15T01:43:45;21.40;;;9.30;;
81960;SDS011;71462;50.650;6.888;2024-01-15T01:46:13;19.83;;;8.60;;
81960;SDS011;71462;50.650;6.888;2024-01-15T01:48:42;19.30;;;7.63;;
81960;SDS011;71462;50.650;6.888;2024-01-15T01:51:10;15.48;;;7.88;;
81960;SDS011;71462;50.650;6.888;2024-01-15T01:53:39;22.88;;;9.73;;
81960;SDS011;71462;50.650;6.888;2024-01-15T01:56:07;13.35;;;6.60;;
81960;SDS011;71462;50.650;6.888;2024-01-15T01:58:35;19.40;;;9.07;;
81960;SDS011;71462;50.650;6.888;2024-01-15T02:01:03;18.17;;;7.30;;
81960;SDS011;71462;50.650;6.888;2024-01-15T02:03:31;18.92;;;8.32;;
81960;SDS011;71462;50.650;6.888;2024-01-15T02:06:00;17.63;;;8.70;;
81960;SDS011;71462;50.650;6.888;2024-01-15T02:08:28;19.15;;;7.95;;
81960;SDS011;71462;50.650;6.888;2024-01-15T02:10:56;19.73;;;9.68;;
81960;SDS011;71462;50.650;6.888;2024-01-15T02:13:23;20.00;;;8.57;;
81960;SDS011;71462;50.650;6.888;2024-01-15T02:15:51;21.45;;;9.95;;
81960;SDS011;71462;50.650;6.888;2024-01-15T02:18:19;21.30;;;10.68;;
81960;SDS011;71462;50.650;6.888;2024-01-15T02:20:47;24.08;;;12.13;;
81960;SDS011;71462;50.650;6.888;2024-01-15T02:23:16;22.00;;;9.07;;
81960;SDS011;71462;50.650;6.888;2024-01-15T02:25:44;24.98;;;11.40;;
81960;SDS011;71462;50.650;6.888;2024-01-15T02:28:14;21.92;;;11.73;;
81960;SDS011;71462;50.650;6.888;2024-01-15T02:30:42;23.58;;;9.90;;
81960;SDS011;71462;50.650;6.888;2024-01-15T02:33:11;19.25;;;7.95;;
81960;SDS011;71462;50.650;6.888;2024-01-15T02:35:40;22.13;;;10.35;;
81960;SDS011;71462;50.650;6.888;2024-01-15T02:38:08;20.00;;;8.43;;
81960;SDS011;71462;50.650;6.888;2024-01-15T02:40:37;21.48;;;10.70;;
81960;SDS011;71462;50.650;6.888;2024-01-15T02:43:05;22.20;;;9.88;;
81960;SDS011;71462;50.650;6.888;2024-01-15T02:45:33;22.17;;;8.73;;
81960;SDS011;71462;50.650;6.888;2024-01-15T02:48:01;22.80;;;10.50;;
81960;SDS011;71462;50.650;6.888;2024-01-15T02:50:28;19.95;;;9.82;;
81960;SDS011;71462;50.650;6.888;2024-01-15T02:52:56;19.08;;;8.85;;
81960;SDS011;71462;50.650;6.888;2024-01-15T02:55:24;21.75;;;11.90;;
81960;SDS011;71462;50.650;6.888;2024-01-15T02:57:53;20.40;;;10.73;;
81960;SDS011;71462;50.650;6.888;2024-01-15T03:00:20;19.23;;;9.52;;
81960;SDS011;71462;50.650;6.888;2024-01-15T03:02:49;17.95;;;8.82;;
81960;SDS011;71462;50.650;6.888;2024-01-15T03:05:18;21.27;;;9.13;;
81960;SDS011;71462;50.650;6.888;2024-01-15T03:07:46;21.25;;;11.00;;
81960;SDS011;71462;50.650;6.888;2024-01-15T03:10:14;19.02;;;9.82;;
81960;SDS011;71462;50.650;6.888;2024-01-15T03:12:41;20.73;;;10.38;;
81960;SDS011;71462;50.650;6.888;2024-01-15T03:15:11;22.77;;;9.75;;
81960;SDS011;71462;50.650;6.888;2024-01-15T03:17:39;23.48;;;12.52;;
81960;SDS011;71462;50.650;6.888;2024-01-15T03:20:09;23.02;;;11.82;;
81960;SDS011;71462;50.650;6.888;2024-01-15T03:22:37;23.23;;;9.73;;
81960;SDS011;71462;50.650;6.888;2024-01-15T03:25:05;24.48;;;12.18;;
81960;SDS011;71462;50.650;6.888;2024-01-15T03:27:33;21.70;;;10.68;;
81960;SDS011;71462;50.650;6.888;2024-01-15T03:30:01;20.15;;;9.35;;
81960;SDS011;71462;50.650;6.888;2024-01-15T03:32:30;24.13;;;11.23;;
81960;SDS011;71462;50.650;6.888;2024-01-15T03:34:58;26.13;;;12.52;;
81960;SDS011;71462;50.650;6.888;2024-01-15T03:37:26;27.55;;;12.18;;
81960;SDS011;71462;50.650;6.888;2024-01-15T03:39:54;19.75;;;8.82;;
81960;SDS011;71462;50.650;6.888;2024-01-15T03:42:22;24.73;;;11.38;;
81960;SDS011;71462;50.650;6.888;2024-01-15T03:44:50;22.45;;;10.50;;
81960;SDS011;71462;50.650;6.888;2024-01-15T03:47:18;22.10;;;9.02;;
81960;SDS011;71462;50.650;6.888;2024-01-15T03:49:47;20.38;;;10.23;;
81960;SDS011;71462;50.650;6.888;2024-01-15T03:52:15;20.23;;;10.43;;
81960;SDS011;71462;50.650;6.888;2024-01-15T03:54:42;21.42;;;10.15;;
81960;SDS011;71462;50.650;6.888;2024-01-15T03:57:10;19.55;;;9.02;;
81960;SDS011;71462;50.650;6.888;2024-01-15T03:59:37;19.23;;;9.45;;
81960;SDS011;71462;50.650;6.888;2024-01-15T04:02:07;23.38;;;9.93;;
81960;SDS011;71462;50.650;6.888;2024-01-15T04:04:35;19.52;;;10.35;;
81960;SDS011;71462;50.650;6.888;2024-01-15T04:07:04;20.63;;;9.45;;
81960;SDS011;71462;50.650;6.888;2024-01-15T04:09:32;22.45;;;12.57;;
81960;SDS011;71462;50.650;6.888;2024-01-15T04:11:59;19.10;;;10.38;;
81960;SDS011;71462;50.650;6.888;2024-01-15T04:14:27;21.30;;;10.15;;
81960;SDS011;71462;50.650;6.888;2024-01-15T04:16:54;22.17;;;10.15;;
81960;SDS011;71462;50.650;6.888;2024-01-15T04:19:22;22.55;;;9.15;;
81960;SDS011;71462;50.650;6.888;2024-01-15T04:21:50;20.50;;;10.70;;
81960;SDS011;71462;50.650;6.888;2024-01-15T04:24:19;22.27;;;9.25;;
81960;SDS011;71462;50.650;6.888;2024-01-15T04:26:46;19.23;;;9.70;;
81960;SDS011;71462;50.650;6.888;2024-01-15T04:29:14;18.75;;;8.85;;
81960;SDS011;71462;50.650;6.888;2024-01-15T04:31:42;16.63;;;8.07;;
81960;SDS011;71462;50.650;6.888;2024-01-15T04:34:10;16.88;;;10.23;;
81960;SDS011;71462;50.650;6.888;2024-01-15T04:36:40;18.60;;;9.18;;
81960;SDS011;71462;50.650;6.888;2024-01-15T04:39:08;19.00;;;9.77;;
81960;SDS011;71462;50.650;6.888;2024-01-15T04:41:40;18.77;;;10.10;;
81960;SDS011;71462;50.650;6.888;2024-01-15T04:44:07;22.23;;;11.70;;
81960;SDS011;71462;50.650;6.888;2024-01-15T04:46:35;18.40;;;9.48;;
81960;SDS011;71462;50.650;6.888;2024-01-15T04:49:03;16.77;;;8.25;;
81960;SDS011;71462;50.650;6.888;2024-01-15T04:51:30;15.45;;;8.05;;
81960;SDS011;71462;50.650;6.888;2024-01-15T04:53:58;17.48;;;9.50;;
81960;SDS011;71462;50.650;6.888;2024-01-15T04:56:26;14.10;;;7.47;;
81960;SDS011;71462;50.650;6.888;2024-01-15T04:58:55;14.02;;;7.10;;
81960;SDS011;71462;50.650;6.888;2024-01-15T05:01:22;15.10;;;8.23;;
81960;SDS011;71462;50.650;6.888;2024-01-15T05:03:50;16.70;;;8.05;;
81960;SDS011;71462;50.650;6.888;2024-01-15T05:06:18;16.95;;;7.57;;
81960;SDS011;71462;50.650;6.888;2024-01-15T05:08:45;17.90;;;8.82;;
81960;SDS011;71462;50.650;6.888;2024-01-15T05:11:13;16.23;;;7.18;;
81960;SDS011;71462;50.650;6.888;2024-01-15T05:13:41;17.13;;;8.05;;
81960;SDS011;71462;50.650;6.888;2024-01-15T05:16:13;15.18;;;7.85;;
81960;SDS011;71462;50.650;6.888;2024-01-15T05:18:41;18.55;;;8.85;;
81960;SDS011;71462;50.650;6.888;2024-01-15T05:21:10;18.48;;;9.38;;
81960;SDS011;71462;50.650;6.888;2024-01-15T05:23:38;13.95;;;6.78;;
81960;SDS011;71462;50.650;6.888;2024-01-15T05:26:06;17.50;;;8.65;;
81960;SDS011;71462;50.650;6.888;2024-01-15T05:28:35;20.73;;;9.15;;
81960;SDS011;71462;50.650;6.888;2024-01-15T05:31:02;18.60;;;8.80;;
81960;SDS011;71462;50.650;6.888;2024-01-15T05:33:33;18.35;;;8.80;;
81960;SDS011;71462;50.650;6.888;2024-01-15T05:36:00;19.40;;;7.63;;
81960;SDS011;71462;50.650;6.888;2024-01-15T05:38:28;20.25;;;8.70;;
81960;SDS011;71462;50.650;6.888;2024-01-15T05:40:56;18.83;;;8.43;;
81960;SDS011;71462;50.650;6.888;2024-01-15T05:43:24;20.45;;;9.98;;
81960;SDS011;71462;50.650;6.888;2024-01-15T05:45:51;24.05;;;10.25;;
81960;SDS011;71462;50.650;6.888;2024-01-15T05:48:19;17.67;;;7.70;;
81960;SDS011;71462;50.650;6.888;2024-01-15T05:50:48;24.80;;;9.70;;
81960;SDS011;71462;50.650;6.888;2024-01-15T05:53:16;19.38;;;8.23;;
81960;SDS011;71462;50.650;6.888;2024-01-15T05:55:44;19.10;;;8.75;;
81960;SDS011;71462;50.650;6.888;2024-01-15T05:58:11;23.27;;;10.93;;
81960;SDS011;71462;50.650;6.888;2024-01-15T06:00:39;19.08;;;7.95;;
81960;SDS011;71462;50.650;6.888;2024-01-15T06:03:07;17.95;;;9.00;;
81960;SDS011;71462;50.650;6.888;2024-01-15T06:05:34;18.52;;;7.97;;
81960;SDS011;71462;50.650;6.888;2024-01-15T06:08:04;18.08;;;8.52;;
81960;SDS011;71462;50.650;6.888;2024-01-15T06:10:32;24.02;;;10.07;;
81960;SDS011;71462;50.650;6.888;2024-01-15T06:12:59;19.60;;;8.68;;
81960;SDS011;71462;50.650;6.888;2024-01-15T06:15:27;16.38;;;7.80;;
81960;SDS011;71462;50.650;6.888;2024-01-15T06:17:55;20.17;;;8.70;;
81960;SDS011;71462;50.650;6.888;2024-01-15T06:20:22;22.52;;;8.20;;
81960;SDS011;71462;50.650;6.888;2024-01-15T06:22:51;17.33;;;8.23;;
81960;SDS011;71462;50.650;6.888;2024-01-15T06:25:20;16.05;;;7.85;;
81960;SDS011;71462;50.650;6.888;2024-01-15T06:27:48;19.40;;;9.02;;
81960;SDS011;71462;50.650;6.888;2024-01-15T06:30:15;16.83;;;7.93;;
81960;SDS011;71462;50.650;6.888;2024-01-15T06:32:43;15.05;;;8.02;;
81960;SDS011;71462;50.650;6.888;2024-01-15T06:35:11;20.02;;;9.38;;
81960;SDS011;71462;50.650;6.888;2024-01-15T06:37:38;16.70;;;6.80;;
81960;SDS011;71462;50.650;6.888;2024-01-15T06:40:07;22.02;;;8.25;;
81960;SDS011;71462;50.650;6.888;2024-01-15T06:42:37;17.63;;;8.13;;
81960;SDS011;71462;50.650;6.888;2024-01-15T06:45:05;21.77;;;8.75;;
81960;SDS011;71462;50.650;6.888;2024-01-15T06:47:34;18.52;;;8.73;;
81960;SDS011;71462;50.650;6.888;2024-01-15T06:50:01;16.15;;;7.55;;
81960;SDS011;71462;50.650;6.888;2024-01-15T06:52:31;17.02;;;7.85;;
81960;SDS011;71462;50.650;6.888;2024-01-15T06:54:59;16.17;;;7.32;;
81960;SDS011;71462;50.650;6.888;2024-01-15T06:57:26;13.30;;;6.35;;
81960;SDS011;71462;50.650;6.888;2024-01-15T06:59:57;12.57;;;7.07;;
81960;SDS011;71462;50.650;6.888;2024-01-15T07:02:25;15.43;;;7.18;;
81960;SDS011;71462;50.650;6.888;2024-01-15T07:04:53;19.80;;;7.68;;
81960;SDS011;71462;50.650;6.888;2024-01-15T07:07:20;14.85;;;7.63;;
81960;SDS011;71462;50.650;6.888;2024-01-15T07:09:48;14.88;;;6.72;;
81960;SDS011;71462;50.650;6.888;2024-01-15T07:12:18;14.32;;;7.00;;
81960;SDS011;71462;50.650;6.888;2024-01-15T07:14:46;16.40;;;7.05;;
81960;SDS011;71462;50.650;6.888;2024-01-15T07:17:15;16.00;;;7.00;;
81960;SDS011;71462;50.650;6.888;2024-01-15T07:19:43;19.08;;;7.75;;
81960;SDS011;71462;50.650;6.888;2024-01-15T07:22:10;20.58;;;9.43;;
81960;SDS011;71462;50.650;6.888;2024-01-15T07:24:38;13.15;;;5.90;;
81960;SDS011;71462;50.650;6.888;2024-01-15T07:27:06;12.48;;;5.90;;
81960;SDS011;71462;50.650;6.888;2024-01-15T07:29:35;21.70;;;12.38;;
81960;SDS011;71462;50.650;6.888;2024-01-15T07:32:04;19.15;;;9.05;;
81960;SDS011;71462;50.650;6.888;2024-01-15T07:34:35;16.15;;;7.18;;
81960;SDS011;71462;50.650;6.888;2024-01-15T07:37:03;13.70;;;6.05;;
81960;SDS011;71462;50.650;6.888;2024-01-15T07:39:30;16.60;;;7.05;;
81960;SDS011;71462;50.650;6.888;2024-01-15T07:41:58;19.33;;;7.97;;
81960;SDS011;71462;50.650;6.888;2024-01-15T07:44:26;15.18;;;6.90;;
81960;SDS011;71462;50.650;6.888;2024-01-15T07:46:53;17.33;;;6.53;;
81960;SDS011;71462;50.650;6.888;2024-01-15T07:49:21;15.38;;;5.80;;
81960;SDS011;71462;50.650;6.888;2024-01-15T07:51:51;13.43;;;5.50;;
81960;SDS011;71462;50.650;6.888;2024-01-15T07:54:19;14.43;;;6.60;;
81960;SDS011;71462;50.650;6.888;2024-01-15T07:56:53;15.55;;;6.32;;
81960;SDS011;71462;50.650;6.888;2024-01-15T07:59:21;13.25;;;6.63;;
81960;SDS011;71462;50.650;6.888;2024-01-15T08:01:49;17.80;;;6.50;;
81960;SDS011;71462;50.650;6.888;2024-01-15T08:04:17;13.48;;;6.53;;
81960;SDS011;71462;50.650;6.888;2024-01-15T08:06:45;13.93;;;7.53;;
81960;SDS011;71462;50.650;6.888;2024-01-15T08:09:15;18.55;;;7.38;;
81960;SDS011;71462;50.650;6.888;2024-01-15T08:11:43;15.48;;;7.80;;
81960;SDS011;71462;50.650;6.888;2024-01-15T08:14:10;19.15;;;7.68;;
81960;SDS011;71462;50.650;6.888;2024-01-15T08:16:39;15.02;;;6.60;;
81960;SDS011;71462;50.650;6.888;2024-01-15T08:19:07;15.75;;;7.32;;
81960;SDS011;71462;50.650;6.888;2024-01-15T08:21:35;16.10;;;7.13;;
81960;SDS011;71462;50.650;6.888;2024-01-15T08:24:05;16.80;;;8.02;;
81960;SDS011;71462;50.650;6.888;2024-01-15T08:26:37;17.17;;;7.55;;
81960;SDS011;71462;50.650;6.888;2024-01-15T08:29:04;17.48;;;7.63;;
81960;SDS011;71462;50.650;6.888;2024-01-15T08:31:32;17.67;;;6.80;;
81960;SDS011;71462;50.650;6.888;2024-01-15T08:34:00;18.55;;;6.93;;
81960;SDS011;71462;50.650;6.888;2024-01-15T08:36:28;15.25;;;6.03;;
81960;SDS011;71462;50.650;6.888;2024-01-15T08:39:01;15.35;;;7.63;;
81960;SDS011;71462;50.650;6.888;2024-01-15T08:41:30;13.23;;;6.00;;
81960;SDS011;71462;50.650;6.888;2024-01-15T08:44:00;15.50;;;7.00;;
81960;SDS011;71462;50.650;6.888;2024-01-15T08:46:28;12.27;;;6.20;;
81960;SDS011;71462;50.650;6.888;2024-01-15T08:48:56;14.13;;;6.50;;
81960;SDS011;71462;50.650;6.888;2024-01-15T08:51:24;16.42;;;7.00;;
81960;SDS011;71462;50.650;6.888;2024-01-15T08:53:51;17.20;;;7.07;;
81960;SDS011;71462;50.650;6.888;2024-01-15T08:56:19;14.63;;;6.03;;
81960;SDS011;71462;50.650;6.888;2024-01-15T08:58:46;13.20;;;6.43;;
81960;SDS011;71462;50.650;6.888;2024-01-15T09:01:16;13.70;;;6.88;;
81960;SDS011;71462;50.650;6.888;2024-01-15T09:03:44;12.35;;;5.53;;
81960;SDS011;71462;50.650;6.888;2024-01-15T09:06:12;12.48;;;5.75;;
81960;SDS011;71462;50.650;6.888;2024-01-15T09:08:40;15.13;;;6.93;;
81960;SDS011;71462;50.650;6.888;2024-01-15T09:11:08;14.48;;;6.60;;
81960;SDS011;71462;50.650;6.888;2024-01-15T09:13:35;11.95;;;5.50;;
81960;SDS011;71462;50.650;6.888;2024-01-15T09:16:03;16.23;;;6.80;;
81960;SDS011;71462;50.650;6.888;2024-01-15T09:18:33;14.57;;;6.55;;
81960;SDS011;71462;50.650;6.888;2024-01-15T09:21:01;11.88;;;6.05;;
81960;SDS011;71462;50.650;6.888;2024-01-15T09:23:31;11.57;;;6.10;;
81960;SDS011;71462;50.650;6.888;2024-01-15T09:25:59;15.15;;;5.60;;
81960;SDS011;71462;50.650;6.888;2024-01-15T09:28:26;13.63;;;5.38;;
81960;SDS011;71462;50.650;6.888;2024-01-15T09:30:54;9.63;;;5.20;;
81960;SDS011;71462;50.650;6.888;2024-01-15T09:33:21;10.00;;;5.72;;
81960;SDS011;71462;50.650;6.888;2024-01-15T09:35:51;14.77;;;6.47;;
81960;SDS011;71462;50.650;6.888;2024-01-15T09:38:19;16.10;;;6.32;;
81960;SDS011;71462;50.650;6.888;2024-01-15T09:40:47;15.80;;;6.57;;
81960;SDS011;71462;50.650;6.888;2024-01-15T09:43:15;16.48;;;6.82;;
81960;SDS011;71462;50.650;6.888;2024-01-15T09:45:44;13.35;;;7.13;;
81960;SDS011;71462;50.650;6.888;2024-01-15T09:48:13;15.70;;;6.18;;
81960;SDS011;71462;50.650;6.888;2024-01-15T09:50:40;13.52;;;6.47;;
81960;SDS011;71462;50.650;6.888;2024-01-15T09:53:10;13.73;;;8.48;;
81960;SDS011;71462;50.650;6.888;2024-01-15T09:55:39;17.48;;;7.03;;
81960;SDS011;71462;50.650;6.888;2024-01-15T09:58:07;15.38;;;7.93;;
81960;SDS011;71462;50.650;6.888;2024-01-15T10:00:34;14.07;;;7.60;;
81960;SDS011;71462;50.650;6.888;2024-01-15T10:03:05;18.00;;;9.30;;
81960;SDS011;71462;50.650;6.888;2024-01-15T10:05:33;12.15;;;6.53;;
81960;SDS011;71462;50.650;6.888;2024-01-15T10:08:01;15.18;;;7.10;;
81960;SDS011;71462;50.650;6.888;2024-01-15T10:10:32;12.88;;;6.45;;
81960;SDS011;71462;50.650;6.888;2024-01-15T10:13:03;13.48;;;6.43;;
81960;SDS011;71462;50.650;6.888;2024-01-15T10:15:33;13.23;;;6.97;;
81960;SDS011;71462;50.650;6.888;2024-01-15T10:18:03;13.27;;;7.00;;
81960;SDS011;71462;50.650;6.888;2024-01-15T10:20:32;16.17;;;7.05;;
81960;SDS011;71462;50.650;6.888;2024-01-15T10:23:00;16.98;;;7.10;;
81960;SDS011;71462;50.650;6.888;2024-01-15T10:25:28;11.75;;;7.57;;
81960;SDS011;71462;50.650;6.888;2024-01-15T10:28:01;19.38;;;7.82;;
81960;SDS011;71462;50.650;6.888;2024-01-15T10:30:31;15.60;;;7.38;;
81960;SDS011;71462;50.650;6.888;2024-01-15T10:33:00;16.15;;;8.63;;
81960;SDS011;71462;50.650;6.888;2024-01-15T10:35:29;12.25;;;6.00;;
81960;SDS011;71462;50.650;6.888;2024-01-15T10:38:00;12.63;;;5.95;;
81960;SDS011;71462;50.650;6.888;2024-01-15T10:40:29;24.80;;;8.07;;
81960;SDS011;71462;50.650;6.888;2024-01-15T10:42:57;15.65;;;7.80;;
81960;SDS011;71462;50.650;6.888;2024-01-15T10:45:26;11.98;;;7.05;;
81960;SDS011;71462;50.650;6.888;2024-01-15T10:47:54;14.48;;;7.10;;
81960;SDS011;71462;50.650;6.888;2024-01-15T10:50:25;12.18;;;6.93;;
81960;SDS011;71462;50.650;6.888;2024-01-15T10:52:52;17.05;;;9.82;;
81960;SDS011;71462;50.650;6.888;2024-01-15T10:55:20;10.13;;;5.70;;
81960;SDS011;71462;50.650;6.888;2024-01-15T10:57:53;11.48;;;6.60;;
81960;SDS011;71462;50.650;6.888;2024-01-15T11:00:23;15.90;;;7.15;;
81960;SDS011;71462;50.650;6.888;2024-01-15T11:02:52;22.83;;;7.85;;
81960;SDS011;71462;50.650;6.888;2024-01-15T11:05:22;21.05;;;9.88;;
81960;SDS011;71462;50.650;6.888;2024-01-15T11:07:54;14.27;;;7.13;;
81960;SDS011;71462;50.650;6.888;2024-01-15T11:10:38;18.85;;;9.35;;
81960;SDS011;71462;50.650;6.888;2024-01-15T11:13:10;15.27;;;8.20;;
81960;SDS011;71462;50.650;6.888;2024-01-15T11:16:00;13.90;;;7.32;;
81960;SDS011;71462;50.650;6.888;2024-01-15T11:18:30;15.65;;;8.98;;
81960;SDS011;71462;50.650;6.888;2024-01-15T11:21:21;15.13;;;8.02;;
81960;SDS011;71462;50.650;6.888;2024-01-15T11:23:52;15.30;;;8.98;;
81960;SDS011;71462;50.650;6.888;2024-01-15T11:26:33;15.07;;;7.97;;
81960;SDS011;71462;50.650;6.888;2024-01-15T11:29:03;18.48;;;8.20;;
81960;SDS011;71462;50.650;6.888;2024-01-15T11:40:38;8.57;;;4.90;;
81960;SDS011;71462;50.650;6.888;2024-01-15T11:43:09;14.88;;;6.55;;
81960;SDS011;71462;50.650;6.888;2024-01-15T11:45:36;14.40;;;6.55;;
81960;SDS011;71462;50.650;6.888;2024-01-15T11:48:12;11.43;;;5.85;;
81960;SDS011;71462;50.650;6.888;2024-01-15T11:50:43;11.52;;;5.45;;
81960;SDS011;71462;50.650;6.888;2024-01-15T11:53:15;10.77;;;5.70;;
81960;SDS011;71462;50.650;6.888;2024-01-15T11:55:45;13.82;;;5.93;;
81960;SDS011;71462;50.650;6.888;2024-01-15T11:58:14;11.15;;;5.35;;
81960;SDS011;71462;50.650;6.888;2024-01-15T12:00:43;15.95;;;6.75;;
81960;SDS011;71462;50.650;6.888;2024-01-15T12:03:12;12.00;;;5.97;;
81960;SDS011;71462;50.650;6.888;2024-01-15T12:05:41;19.75;;;5.55;;
81960;SDS011;71462;50.650;6.888;2024-01-15T12:08:10;14.15;;;6.60;;
81960;SDS011;71462;50.650;6.888;2024-01-15T12:10:38;6.93;;;3.95;;
81960;SDS011;71462;50.650;6.888;2024-01-15T12:13:09;15.77;;;6.00;;
81960;SDS011;71462;50.650;6.888;2024-01-15T12:15:39;11.70;;;4.88;;
81960;SDS011;71462;50.650;6.888;2024-01-15T12:18:07;14.07;;;4.40;;
81960;SDS011;71462;50.650;6.888;2024-01-15T12:20:36;11.15;;;4.72;;
81960;SDS011;71462;50.650;6.888;2024-01-15T12:23:05;8.00;;;4.20;;
81960;SDS011;71462;50.650;6.888;2024-01-15T12:25:36;8.20;;;3.95;;
81960;SDS011;71462;50.650;6.888;2024-01-15T12:28:05;12.35;;;3.92;;
81960;SDS011;71462;50.650;6.888;2024-01-15T12:30:33;13.43;;;4.38;;
81960;SDS011;71462;50.650;6.888;2024-01-15T12:33:03;14.13;;;4.75;;
81960;SDS011;71462;50.650;6.888;2024-01-15T12:35:31;15.57;;;5.00;;
81960;SDS011;71462;50.650;6.888;2024-01-15T12:38:00;13.18;;;4.97;;
81960;SDS011;71462;50.650;6.888;2024-01-15T12:40:30;12.05;;;4.10;;
81960;SDS011;71462;50.650;6.888;2024-01-15T12:43:00;10.98;;;5.22;;
81960;SDS011;71462;50.650;6.888;2024-01-15T12:45:28;11.95;;;5.22;;
81960;SDS011;71462;50.650;6.888;2024-01-15T12:47:57;12.77;;;4.43;;
81960;SDS011;71462;50.650;6.888;2024-01-15T12:50:26;9.45;;;3.78;;
81960;SDS011;71462;50.650;6.888;2024-01-15T12:52:54;11.48;;;4.28;;
81960;SDS011;71462;50.650;6.888;2024-01-15T12:55:21;9.30;;;3.58;;
81960;SDS011;71462;50.650;6.888;2024-01-15T12:57:49;10.20;;;4.22;;
81960;SDS011;71462;50.650;6.888;2024-01-15T13:00:20;11.23;;;3.30;;
81960;SDS011;71462;50.650;6.888;2024-01-15T13:02:48;8.60;;;3.22;;
81960;SDS011;71462;50.650;6.888;2024-01-15T13:05:17;9.50;;;3.15;;
81960;SDS011;71462;50.650;6.888;2024-01-15T13:07:45;8.95;;;4.00;;
81960;SDS011;71462;50.650;6.888;2024-01-15T13:10:13;6.72;;;3.40;;
81960;SDS011;71462;50.650;6.888;2024-01-15T13:12:40;8.30;;;3.67;;
81960;SDS011;71462;50.650;6.888;2024-01-15T13:15:08;10.15;;;3.95;;
81960;SDS011;71462;50.650;6.888;2024-01-15T13:17:42;9.60;;;3.35;;
81960;SDS011;71462;50.650;6.888;2024-01-15T13:20:10;10.88;;;3.50;;
81960;SDS011;71462;50.650;6.888;2024-01-15T13:22:39;12.88;;;3.80;;
81960;SDS011;71462;50.650;6.888;2024-01-15T13:25:10;7.00;;;3.38;;
81960;SDS011;71462;50.650;6.888;2024-01-15T13:27:37;11.70;;;4.68;;
81960;SDS011;71462;50.650;6.888;2024-01-15T13:30:07;13.80;;;3.60;;
81960;SDS011;71462;50.650;6.888;2024-01-15T13:32:36;8.80;;;4.85;;
81960;SDS011;71462;50.650;6.888;2024-01-15T13:35:06;14.30;;;5.53;;
81960;SDS011;71462;50.650;6.888;2024-01-15T13:37:36;14.70;;;6.97;;
81960;SDS011;71462;50.650;6.888;2024-01-15T13:40:04;14.68;;;4.32;;
81960;SDS011;71462;50.650;6.888;2024-01-15T13:42:34;8.80;;;2.67;;
81960;SDS011;71462;50.650;6.888;2024-01-15T13:45:04;9.82;;;4.57;;
81960;SDS011;71462;50.650;6.888;2024-01-15T13:47:35;10.32;;;4.68;;
81960;SDS011;71462;50.650;6.888;2024-01-15T13:50:08;14.80;;;4.00;;
81960;SDS011;71462;50.650;6.888;2024-01-15T13:52:36;15.35;;;4.68;;
81960;SDS011;71462;50.650;6.888;2024-01-15T13:55:04;10.20;;;4.80;;
81960;SDS011;71462;50.650;6.888;2024-01-15T13:57:35;8.68;;;4.57;;
81960;SDS011;71462;50.650;6.888;2024-01-15T14:00:04;8.52;;;4.25;;
81960;SDS011;71462;50.650;6.888;2024-01-15T14:02:38;11.82;;;4.15;;
81960;SDS011;71462;50.650;6.888;2024-01-15T14:05:07;9.68;;;4.80;;
81960;SDS011;71462;50.650;6.888;2024-01-15T14:07:39;18.75;;;6.85;;
81960;SDS011;71462;50.650;6.888;2024-01-15T14:10:07;11.75;;;4.65;;
81960;SDS011;71462;50.650;6.888;2024-01-15T14:12:36;10.43;;;5.38;;
81960;SDS011;71462;50.650;6.888;2024-01-15T14:15:05;12.90;;;4.82;;
81960;SDS011;71462;50.650;6.888;2024-01-15T14:17:33;11.68;;;4.75;;
81960;SDS011;71462;50.650;6.888;2024-01-15T14:20:19;12.52;;;4.65;;
81960;SDS011;71462;50.650;6.888;2024-01-15T14:22:49;10.48;;;4.22;;
81960;SDS011;71462;50.650;6.888;2024-01-15T14:25:21;12.55;;;4.28;;
81960;SDS011;71462;50.650;6.888;2024-01-15T14:27:50;12.98;;;5.68;;
81960;SDS011;71462;50.650;6.888;2024-01-15T14:30:18;9.85;;;5.32;;
81960;SDS011;71462;50.650;6.888;2024-01-15T14:32:46;13.32;;;5.30;;
81960;SDS011;71462;50.650;6.888;2024-01-15T14:35:14;12.75;;;4.45;;
81960;SDS011;71462;50.650;6.888;2024-01-15T14:37:43;11.77;;;4.88;;
81960;SDS011;71462;50.650;6.888;2024-01-15T14:40:12;9.52;;;5.22;;
81960;SDS011;71462;50.650;6.888;2024-01-15T14:42:43;9.63;;;4.40;;
81960;SDS011;71462;50.650;6.888;2024-01-15T14:45:11;10.68;;;3.33;;
81960;SDS011;71462;50.650;6.888;2024-01-15T14:47:40;8.98;;;3.55;;
81960;SDS011;71462;50.650;6.888;2024-01-15T14:50:08;6.47;;;3.25;;
81960;SDS011;71462;50.650;6.888;2024-01-15T14:52:38;5.75;;;2.60;;